createdAt,value
2023-03-08T00:02:08.593Z,98616.09
2023-03-08T00:04:21.372Z,98619.79
2023-03-08T00:06:34.247Z,98617.83
2023-03-08T00:08:48.432Z,98620.64
2023-03-08T00:11:06.074Z,98625.85
2023-03-08T00:13:18.671Z,98627.23
2023-03-08T00:15:31.230Z,98633.84
2023-03-08T00:17:43.791Z,98635.60
2023-03-08T00:19:57.237Z,98633.86
2023-03-08T00:22:10.847Z,98633.39
2023-03-08T00:24:23.879Z,98637.37
2023-03-08T00:26:36.497Z,98638.55
2023-03-08T00:28:49.305Z,98637.23
2023-03-08T00:31:05.237Z,98643.47
2023-03-08T00:33:17.771Z,98641.50
2023-03-08T00:35:30.422Z,98642.77
2023-03-08T00:37:43.014Z,98640.92
2023-03-08T00:39:55.559Z,98642.09
2023-03-08T00:42:08.166Z,98643.25
2023-03-08T00:44:20.758Z,98645.08
2023-03-08T00:46:33.358Z,98646.98
2023-03-08T00:48:45.945Z,98644.92
2023-03-08T00:50:58.797Z,98649.27
2023-03-08T00:53:12.469Z,98648.63
2023-03-08T00:55:25.044Z,98657.19
2023-03-08T00:57:37.560Z,98661.30
2023-03-08T00:59:50.107Z,98666.29
2023-03-08T01:02:03.081Z,98670.56
2023-03-08T01:04:15.819Z,98672.14
2023-03-08T01:06:28.334Z,98672.55
2023-03-08T01:08:42.191Z,98666.84
2023-03-08T01:11:00.146Z,98669.16
2023-03-08T01:13:13.066Z,98678.23
2023-03-08T01:15:25.717Z,98681.49
2023-03-08T01:17:38.312Z,98684.46
2023-03-08T01:19:52.089Z,98686.37
2023-03-08T01:22:04.732Z,98686.55
2023-03-08T01:24:17.252Z,98686.33
2023-03-08T01:26:29.816Z,98687.13
2023-03-08T01:28:43.264Z,98681.53
2023-03-08T01:31:04.987Z,98674.25
2023-03-08T01:33:17.517Z,98674.54
2023-03-08T01:35:30.099Z,98683.89
2023-03-08T01:37:42.769Z,98694.34
2023-03-08T01:39:55.316Z,98698.13
2023-03-08T01:42:08.056Z,98700.57
2023-03-08T01:44:22.697Z,98702.48
2023-03-08T01:46:36.539Z,98703.17
2023-03-08T01:48:54.726Z,98701.19
2023-03-08T01:51:10.443Z,98702.67
2023-03-08T01:53:23.066Z,98709.14
2023-03-08T01:55:35.904Z,98714.95
2023-03-08T01:57:51.556Z,98719.52
2023-03-08T02:00:22.614Z,98721.49
2023-03-08T02:02:43.330Z,98724.20
2023-03-08T02:04:56.364Z,98719.78
2023-03-08T02:07:08.963Z,98719.14
2023-03-08T02:09:22.158Z,98723.87
2023-03-08T02:11:37.045Z,98732.24
2023-03-08T02:13:52.194Z,98733.70
2023-03-08T02:16:08.152Z,98732.03
2023-03-08T02:18:21.526Z,98733.77
2023-03-08T02:20:40.176Z,98728.48
2023-03-08T02:22:53.163Z,98723.35
2023-03-08T02:25:21.988Z,98726.61
2023-03-08T02:27:34.603Z,98728.66
2023-03-08T02:29:47.315Z,98729.83
2023-03-08T02:31:59.843Z,98737.30
2023-03-08T02:34:12.431Z,98738.84
2023-03-08T02:36:25.013Z,98741.12
2023-03-08T02:38:37.687Z,98749.10
2023-03-08T02:40:51.575Z,98756.14
2023-03-08T02:43:04.899Z,98758.38
2023-03-08T02:45:17.613Z,98752.48
2023-03-08T02:47:30.283Z,98750.46
2023-03-08T02:49:42.878Z,98751.77
2023-03-08T02:51:55.443Z,98759.80
2023-03-08T02:54:07.996Z,98757.77
2023-03-08T02:56:21.439Z,98759.48
2023-03-08T02:58:33.977Z,98764.44
2023-03-08T03:00:46.648Z,98764.79
2023-03-08T03:02:59.477Z,98760.39
2023-03-08T03:05:12.387Z,98758.80
2023-03-08T03:07:24.978Z,98759.75
2023-03-08T03:09:37.590Z,98757.52
2023-03-08T03:11:50.380Z,98763.13
2023-03-08T03:14:03.084Z,98764.73
2023-03-08T03:16:16.877Z,98767.07
2023-03-08T03:18:29.464Z,98769.52
2023-03-08T03:20:41.999Z,98775.89
2023-03-08T03:22:54.559Z,98774.24
2023-03-08T03:25:07.820Z,98776.63
2023-03-08T03:27:20.347Z,98778.45
2023-03-08T03:29:32.882Z,98780.06
2023-03-08T03:31:45.580Z,98785.55
2023-03-08T03:33:58.434Z,98785.52
2023-03-08T03:36:14.025Z,98787.40
2023-03-08T03:38:26.736Z,98791.86
2023-03-08T03:40:39.445Z,98787.31
2023-03-08T03:42:51.977Z,98794.79
2023-03-08T03:45:05.110Z,98796.77
2023-03-08T03:47:17.985Z,98799.25
2023-03-08T03:49:30.786Z,98797.63
2023-03-08T03:51:43.339Z,98796.91
2023-03-08T03:53:55.991Z,98801.59
2023-03-08T03:56:18.179Z,98804.58
2023-03-08T03:58:33.842Z,98807.87
2023-03-08T04:00:46.677Z,98814.86
2023-03-08T04:02:59.283Z,98814.42
2023-03-08T04:05:12.106Z,98820.29
2023-03-08T04:07:24.665Z,98823.10
2023-03-08T04:09:37.223Z,98827.69
2023-03-08T04:11:49.762Z,98834.08
2023-03-08T04:14:03.487Z,98833.35
2023-03-08T04:16:22.341Z,98839.70
2023-03-08T04:18:34.927Z,98839.30
2023-03-08T04:20:47.549Z,98837.58
2023-03-08T04:23:00.092Z,98831.91
2023-03-08T04:25:12.626Z,98831.22
2023-03-08T04:27:25.152Z,98843.53
2023-03-08T04:29:37.705Z,98838.82
2023-03-08T04:31:50.233Z,98830.59
2023-03-08T04:34:04.115Z,98821.80
2023-03-08T04:36:17.782Z,98821.44
2023-03-08T04:38:31.165Z,98824.83
2023-03-08T04:41:07.932Z,98828.91
2023-03-08T04:43:20.542Z,98827.58
2023-03-08T04:45:33.067Z,98831.12
2023-03-08T04:47:45.632Z,98826.55
2023-03-08T04:49:58.252Z,98826.09
2023-03-08T04:52:11.004Z,98840.27
2023-03-08T04:54:23.742Z,98847.69
2023-03-08T04:56:36.506Z,98857.85
2023-03-08T04:58:49.393Z,98856.46
2023-03-08T05:01:12.408Z,98858.24
2023-03-08T05:03:25.507Z,98848.24
2023-03-08T05:05:38.064Z,98850.31
2023-03-08T05:07:50.620Z,98846.38
2023-03-08T05:10:03.475Z,98848.04
2023-03-08T05:12:15.980Z,98842.01
2023-03-08T05:14:28.573Z,98845.95
2023-03-08T05:16:41.379Z,98853.34
2023-03-08T05:18:54.024Z,98863.14
2023-03-08T05:21:10.394Z,98866.33
2023-03-08T05:23:24.479Z,98866.89
2023-03-08T05:25:46.317Z,98863.60
2023-03-08T05:27:59.356Z,98860.10
2023-03-08T05:30:12.368Z,98859.45
2023-03-08T05:32:25.078Z,98863.73
2023-03-08T05:34:37.661Z,98867.05
2023-03-08T05:36:50.208Z,98873.33
2023-03-08T05:39:03.352Z,98878.02
2023-03-08T05:41:16.691Z,98881.27
2023-03-08T05:43:29.497Z,98878.76
2023-03-08T05:45:42.470Z,98886.60
2023-03-08T05:47:55.063Z,98890.84
2023-03-08T05:50:08.411Z,98887.77
2023-03-08T05:52:21.056Z,98890.16
2023-03-08T05:54:33.733Z,98881.66
2023-03-08T05:56:46.346Z,98886.55
2023-03-08T05:58:58.916Z,98889.50
2023-03-08T06:01:22.548Z,98889.49
2023-03-08T06:03:35.194Z,98891.86
2023-03-08T06:05:47.877Z,98896.78
2023-03-08T06:08:00.838Z,98898.95
2023-03-08T06:10:13.467Z,98900.06
2023-03-08T06:12:27.073Z,98901.02
2023-03-08T06:14:39.605Z,98899.17
2023-03-08T06:16:52.256Z,98898.47
2023-03-08T06:19:04.925Z,98906.23
2023-03-08T06:21:21.296Z,98912.58
2023-03-08T06:23:35.475Z,98910.70
2023-03-08T06:25:48.031Z,98910.85
2023-03-08T06:28:00.605Z,98912.05
2023-03-08T06:30:13.445Z,98916.48
2023-03-08T06:32:26.049Z,98919.52
2023-03-08T06:34:38.729Z,98917.92
2023-03-08T06:36:52.279Z,98918.29
2023-03-08T06:39:07.039Z,98924.19
2023-03-08T06:41:21.305Z,98930.55
2023-03-08T06:43:34.219Z,98929.10
2023-03-08T06:45:46.948Z,98925.75
2023-03-08T06:47:59.814Z,98929.16
2023-03-08T06:50:12.436Z,98934.28
2023-03-08T06:52:24.980Z,98934.95
2023-03-08T06:54:37.518Z,98938.70
2023-03-08T06:56:50.097Z,98939.83
2023-03-08T06:59:02.682Z,98941.66
2023-03-08T07:01:15.380Z,98937.90
2023-03-08T07:03:28.076Z,98933.45
2023-03-08T07:05:40.961Z,98925.95
2023-03-08T07:07:53.611Z,98944.72
2023-03-08T07:10:06.875Z,98947.05
2023-03-08T07:12:19.458Z,98939.43
2023-03-08T07:14:32.048Z,98935.70
2023-03-08T07:16:44.669Z,98938.48
2023-03-08T07:18:57.188Z,98941.31
2023-03-08T07:21:10.997Z,98946.45
2023-03-08T07:23:24.249Z,98947.50
2023-03-08T07:25:40.034Z,98948.16
2023-03-08T07:27:52.558Z,98951.29
2023-03-08T07:30:06.988Z,98958.57
2023-03-08T07:32:19.685Z,98957.21
2023-03-08T07:34:32.235Z,98958.20
2023-03-08T07:36:44.806Z,98962.42
2023-03-08T07:38:57.401Z,98962.84
2023-03-08T07:41:10.485Z,98963.84
2023-03-08T07:43:23.876Z,98957.56
2023-03-08T07:45:39.707Z,98957.67
2023-03-08T07:47:52.927Z,98960.84
2023-03-08T07:50:05.564Z,98962.69
2023-03-08T07:52:18.101Z,98953.23
2023-03-08T07:54:30.655Z,98953.77
2023-03-08T07:56:43.150Z,98955.27
2023-03-08T07:58:57.316Z,98951.24
2023-03-08T08:01:14.557Z,98952.36
2023-03-08T08:03:29.854Z,98948.65
2023-03-08T08:05:42.621Z,98944.13
2023-03-08T08:07:55.368Z,98945.66
2023-03-08T08:10:08.726Z,98951.01
2023-03-08T08:12:21.290Z,98954.81
2023-03-08T08:14:33.979Z,98955.98
2023-03-08T08:16:46.708Z,98955.88
2023-03-08T08:18:59.322Z,98957.36
2023-03-08T08:21:14.893Z,98959.05
2023-03-08T08:23:27.988Z,98960.27
2023-03-08T08:25:40.626Z,98967.59
2023-03-08T08:27:53.193Z,98969.92
2023-03-08T08:30:06.458Z,98966.23
2023-03-08T08:32:19.093Z,98969.77
2023-03-08T08:34:31.645Z,98970.39
2023-03-08T08:36:44.220Z,98963.77
2023-03-08T08:38:56.919Z,98954.29
2023-03-08T08:41:10.241Z,98959.48
2023-03-08T08:43:22.816Z,98965.43
2023-03-08T08:45:35.481Z,98964.10
2023-03-08T08:47:49.130Z,98959.17
2023-03-08T08:50:01.881Z,98947.02
2023-03-08T08:52:14.427Z,98947.35
2023-03-08T08:54:27.058Z,98949.50
2023-03-08T08:56:42.826Z,98943.50
2023-03-08T08:59:01.067Z,98942.38
2023-03-08T09:01:17.998Z,98950.36
2023-03-08T09:03:30.548Z,98956.02
2023-03-08T09:05:44.728Z,98954.80
2023-03-08T09:07:58.948Z,98954.69
2023-03-08T09:10:11.947Z,98947.59
2023-03-08T09:12:24.748Z,98942.93
2023-03-08T09:14:37.433Z,98940.83
2023-03-08T09:16:50.067Z,98937.15
2023-03-08T09:19:04.495Z,98936.65
2023-03-08T09:21:17.712Z,98939.73
2023-03-08T09:23:30.289Z,98943.13
2023-03-08T09:25:42.826Z,98936.90
2023-03-08T09:27:55.409Z,98938.23
2023-03-08T09:30:14.032Z,98935.02
2023-03-08T09:32:27.044Z,98935.51
2023-03-08T09:34:39.618Z,98936.23
2023-03-08T09:36:52.267Z,98935.70
2023-03-08T09:39:05.622Z,98941.85
2023-03-08T09:41:42.601Z,98936.24
2023-03-08T09:44:17.110Z,98935.39
2023-03-08T09:46:38.608Z,98928.11
2023-03-08T09:48:52.437Z,98932.59
2023-03-08T09:51:11.575Z,98930.35
2023-03-08T09:53:32.605Z,98924.42
2023-03-08T09:56:00.395Z,98912.22
2023-03-08T09:58:22.323Z,98911.62
2023-03-08T10:00:36.947Z,98911.95
2023-03-08T10:02:58.058Z,98909.18
2023-03-08T10:05:24.955Z,98901.34
2023-03-08T10:07:56.662Z,98898.86
2023-03-08T10:10:09.774Z,98899.45
2023-03-08T10:12:52.156Z,98898.73
2023-03-08T10:15:11.162Z,98892.32
2023-03-08T10:17:35.708Z,98892.74
2023-03-08T10:20:01.205Z,98892.05
2023-03-08T10:22:26.326Z,98888.58
2023-03-08T10:24:53.234Z,98888.00
2023-03-08T10:27:22.023Z,98880.70
2023-03-08T10:29:34.617Z,98877.54
2023-03-08T10:31:47.962Z,98871.52
2023-03-08T10:34:20.155Z,98870.17
2023-03-08T10:36:32.898Z,98867.67
2023-03-08T10:38:57.829Z,98864.20
2023-03-08T10:41:10.373Z,98862.90
2023-03-08T10:43:29.445Z,98866.86
2023-03-08T10:45:42.017Z,98864.17
2023-03-08T10:47:57.114Z,98862.64
2023-03-08T10:50:18.986Z,98860.66
2023-03-08T10:52:31.923Z,98860.45
2023-03-08T10:54:45.555Z,98860.00
2023-03-08T10:57:05.405Z,98854.66
2023-03-08T10:59:22.894Z,98854.84
2023-03-08T11:01:51.531Z,98853.08
2023-03-08T11:04:16.229Z,98846.10
2023-03-08T11:06:29.377Z,98838.35
2023-03-08T11:08:54.518Z,98836.16
2023-03-08T11:11:11.048Z,98837.10
2023-03-08T11:13:29.090Z,98834.15
2023-03-08T11:15:46.513Z,98830.73
2023-03-08T11:18:27.216Z,98827.89
2023-03-08T11:20:46.663Z,98819.39
2023-03-08T11:23:19.294Z,98812.79
2023-03-08T11:26:00.841Z,98810.88
2023-03-08T11:28:40.204Z,98799.76
2023-03-08T11:31:08.753Z,98795.02
2023-03-08T11:33:27.880Z,98789.01
2023-03-08T11:36:12.010Z,98783.56
2023-03-08T11:38:28.064Z,98785.17
2023-03-08T11:41:02.227Z,98779.71
2023-03-08T11:43:28.274Z,98777.55
2023-03-08T11:46:06.521Z,98777.83
2023-03-08T11:48:25.604Z,98768.09
2023-03-08T11:50:49.252Z,98766.15
2023-03-08T11:53:17.103Z,98763.70
2023-03-08T11:56:11.435Z,98761.23
2023-03-08T11:58:40.194Z,98757.95
2023-03-08T12:00:59.852Z,98750.44
2023-03-08T12:03:18.302Z,98749.21
2023-03-08T12:05:35.822Z,98744.01
2023-03-08T12:07:58.130Z,98739.81
2023-03-08T12:10:28.413Z,98735.81
2023-03-08T12:12:48.631Z,98736.41
2023-03-08T12:15:20.221Z,98733.58
2023-03-08T12:17:41.819Z,98727.08
2023-03-08T12:19:54.369Z,98727.83
2023-03-08T12:22:42.553Z,98725.23
2023-03-08T12:25:01.313Z,98717.56
2023-03-08T12:28:05.096Z,98715.57
2023-03-08T12:30:26.266Z,98710.04
2023-03-08T12:32:41.059Z,98704.16
2023-03-08T12:35:22.008Z,98700.05
2023-03-08T12:37:34.719Z,98700.67
2023-03-08T12:39:58.061Z,98694.66
2023-03-08T12:42:10.496Z,98686.14
2023-03-08T12:44:25.812Z,98682.45
2023-03-08T12:47:01.459Z,98677.54
2023-03-08T12:49:35.213Z,98675.64
2023-03-08T12:51:57.601Z,98669.55
2023-03-08T12:54:21.797Z,98666.11
2023-03-08T12:56:50.070Z,98661.20
2023-03-08T12:59:11.455Z,98656.82
2023-03-08T13:01:35.135Z,98655.83
2023-03-08T13:03:47.799Z,98649.80
2023-03-08T13:06:00.382Z,98646.30
2023-03-08T13:08:12.878Z,98646.77
2023-03-08T13:10:32.300Z,98643.85
2023-03-08T13:13:04.097Z,98642.32
2023-03-08T13:15:19.411Z,98635.20
2023-03-08T13:17:32.334Z,98635.66
2023-03-08T13:19:45.267Z,98630.24
2023-03-08T13:22:19.227Z,98625.61
2023-03-08T13:25:01.850Z,98624.00
2023-03-08T13:27:45.112Z,98622.71
2023-03-08T13:30:27.569Z,98612.88
2023-03-08T13:32:40.297Z,98609.17
2023-03-08T13:35:04.930Z,98602.40
2023-03-08T13:37:22.530Z,98594.31
2023-03-08T13:39:35.104Z,98588.27
2023-03-08T13:41:48.600Z,98587.31
2023-03-08T13:44:03.217Z,98588.39
2023-03-08T13:46:17.134Z,98586.00
2023-03-08T13:48:35.258Z,98575.75
2023-03-08T13:50:52.849Z,98572.57
2023-03-08T13:53:10.644Z,98569.23
2023-03-08T13:55:34.548Z,98569.17
2023-03-08T13:57:52.176Z,98564.02
2023-03-08T14:00:17.215Z,98562.08
2023-03-08T14:02:32.074Z,98561.02
2023-03-08T14:04:44.742Z,98557.79
2023-03-08T14:07:01.136Z,98557.07
2023-03-08T14:09:13.669Z,98553.52
2023-03-08T14:11:35.353Z,98550.66
2023-03-08T14:13:50.726Z,98547.82
2023-03-08T14:16:06.342Z,98549.06
2023-03-08T14:18:24.868Z,98545.21
2023-03-08T14:20:37.530Z,98544.13
2023-03-08T14:22:53.184Z,98542.02
2023-03-08T14:25:06.519Z,98542.20
2023-03-08T14:27:19.175Z,98535.73
2023-03-08T14:29:34.522Z,98536.66
2023-03-08T14:32:06.486Z,98537.34
2023-03-08T14:34:29.557Z,98535.70
2023-03-08T14:36:52.285Z,98535.39
2023-03-08T14:39:04.866Z,98537.84
2023-03-08T14:41:17.618Z,98538.54
2023-03-08T14:43:30.277Z,98538.77
2023-03-08T14:45:55.645Z,98538.58
2023-03-08T14:48:17.302Z,98534.98
2023-03-08T14:50:34.423Z,98535.12
2023-03-08T14:52:50.552Z,98536.30
2023-03-08T14:55:18.818Z,98532.25
2023-03-08T14:57:31.488Z,98533.94
2023-03-08T14:59:44.146Z,98534.61
2023-03-08T15:01:56.773Z,98528.52
2023-03-08T15:04:20.307Z,98526.40
2023-03-08T15:06:36.026Z,98526.18
2023-03-08T15:08:49.158Z,98526.93
2023-03-08T15:11:01.801Z,98522.23
2023-03-08T15:13:21.170Z,98520.57
2023-03-08T15:15:33.867Z,98514.07
2023-03-08T15:17:46.863Z,98506.41
2023-03-08T15:19:59.434Z,98509.04
2023-03-08T15:22:13.985Z,98505.98
2023-03-08T15:24:26.576Z,98506.02
2023-03-08T15:26:39.138Z,98499.94
2023-03-08T15:28:51.724Z,98494.48
2023-03-08T15:31:04.463Z,98492.41
2023-03-08T15:33:17.031Z,98498.31
2023-03-08T15:35:30.115Z,98493.76
2023-03-08T15:37:44.930Z,98491.23
2023-03-08T15:39:57.603Z,98492.04
2023-03-08T15:42:10.153Z,98493.22
2023-03-08T15:44:22.748Z,98492.80
2023-03-08T15:46:35.597Z,98489.82
2023-03-08T15:48:50.950Z,98485.77
2023-03-08T15:51:03.871Z,98483.12
2023-03-08T15:53:26.236Z,98485.25
2023-03-08T15:55:42.116Z,98484.73
2023-03-08T15:57:54.869Z,98480.84
2023-03-08T16:00:11.592Z,98472.46
2023-03-08T16:02:24.241Z,98468.17
2023-03-08T16:04:37.370Z,98467.89
2023-03-08T16:06:49.912Z,98462.27
2023-03-08T16:09:02.515Z,98466.15
2023-03-08T16:11:17.381Z,98463.34
2023-03-08T16:13:30.324Z,98452.58
2023-03-08T16:15:42.875Z,98447.17
2023-03-08T16:17:55.528Z,98449.73
2023-03-08T16:20:08.959Z,98443.29
2023-03-08T16:22:22.115Z,98448.15
2023-03-08T16:24:35.019Z,98443.42
2023-03-08T16:26:47.531Z,98441.48
2023-03-08T16:29:00.047Z,98436.73
2023-03-08T16:31:13.751Z,98433.30
2023-03-08T16:33:27.630Z,98430.94
2023-03-08T16:35:40.382Z,98429.98
2023-03-08T16:37:53.892Z,98429.63
2023-03-08T16:40:07.384Z,98424.29
2023-03-08T16:42:21.307Z,98424.48
2023-03-08T16:44:33.820Z,98435.52
2023-03-08T16:46:46.385Z,98437.81
2023-03-08T16:48:59.688Z,98436.17
2023-03-08T16:51:14.799Z,98431.22
2023-03-08T16:53:28.070Z,98421.57
2023-03-08T16:55:40.583Z,98414.87
2023-03-08T16:57:53.185Z,98408.98
2023-03-08T17:00:09.235Z,98407.05
2023-03-08T17:02:22.428Z,98406.00
2023-03-08T17:04:35.036Z,98403.92
2023-03-08T17:06:47.617Z,98403.54
2023-03-08T17:09:00.665Z,98398.55
2023-03-08T17:11:21.961Z,98398.23
2023-03-08T17:13:34.686Z,98401.86
2023-03-08T17:15:47.717Z,98397.86
2023-03-08T17:18:00.252Z,98397.09
2023-03-08T17:20:14.087Z,98406.66
2023-03-08T17:22:27.218Z,98392.53
2023-03-08T17:24:39.785Z,98380.81
2023-03-08T17:26:52.958Z,98376.45
2023-03-08T17:29:05.578Z,98376.92
2023-03-08T17:31:21.363Z,98372.62
2023-03-08T17:33:34.093Z,98374.63
2023-03-08T17:35:46.680Z,98381.63
2023-03-08T17:37:59.292Z,98379.69
2023-03-08T17:40:13.389Z,98374.42
2023-03-08T17:42:26.026Z,98370.23
2023-03-08T17:44:38.613Z,98363.95
2023-03-08T17:46:51.137Z,98363.08
2023-03-08T17:49:03.768Z,98364.42
2023-03-08T17:51:19.005Z,98361.54
2023-03-08T17:53:32.352Z,98356.42
2023-03-08T17:55:44.999Z,98350.48
2023-03-08T17:57:57.608Z,98344.88
2023-03-08T18:00:13.752Z,98338.99
2023-03-08T18:02:27.290Z,98336.57
2023-03-08T18:04:44.573Z,98335.74
2023-03-08T18:06:57.258Z,98333.08
2023-03-08T18:09:16.551Z,98324.63
2023-03-08T18:11:29.134Z,98317.23
2023-03-08T18:13:41.667Z,98315.90
2023-03-08T18:15:55.228Z,98312.71
2023-03-08T18:18:07.976Z,98312.37
2023-03-08T18:20:20.530Z,98311.70
2023-03-08T18:22:33.182Z,98309.20
2023-03-08T18:24:45.745Z,98308.91
2023-03-08T18:26:58.387Z,98306.06
2023-03-08T18:29:12.467Z,98305.24
2023-03-08T18:31:26.201Z,98305.55
2023-03-08T18:33:39.309Z,98298.83
2023-03-08T18:36:01.182Z,98291.95
2023-03-08T18:38:13.726Z,98289.13
2023-03-08T18:40:29.255Z,98286.84
2023-03-08T18:42:43.082Z,98280.11
2023-03-08T18:44:55.629Z,98281.13
2023-03-08T18:47:08.200Z,98281.20
2023-03-08T18:49:21.028Z,98277.85
2023-03-08T18:51:35.638Z,98279.54
2023-03-08T18:53:48.226Z,98272.68
2023-03-08T18:56:03.747Z,98267.40
2023-03-08T18:58:16.307Z,98261.98
2023-03-08T19:00:28.937Z,98259.05
2023-03-08T19:02:41.514Z,98255.28
2023-03-08T19:04:54.201Z,98253.05
2023-03-08T19:07:06.826Z,98246.88
2023-03-08T19:09:21.688Z,98240.46
2023-03-08T19:11:34.832Z,98239.89
2023-03-08T19:13:48.296Z,98238.11
2023-03-08T19:16:00.830Z,98230.64
2023-03-08T19:18:13.412Z,98233.20
2023-03-08T19:20:26.621Z,98236.78
2023-03-08T19:22:39.741Z,98240.83
2023-03-08T19:24:52.233Z,98241.86
2023-03-08T19:27:06.123Z,98242.91
2023-03-08T19:29:24.855Z,98238.48
2023-03-08T19:31:43.740Z,98234.92
2023-03-08T19:33:56.824Z,98233.68
2023-03-08T19:36:09.402Z,98228.86
2023-03-08T19:38:21.976Z,98230.80
2023-03-08T19:40:34.515Z,98234.38
2023-03-08T19:42:47.111Z,98236.39
2023-03-08T19:44:59.710Z,98234.06
2023-03-08T19:47:12.237Z,98234.61
2023-03-08T19:49:29.496Z,98231.70
2023-03-08T19:51:42.484Z,98229.14
2023-03-08T19:53:55.249Z,98234.19
2023-03-08T19:56:13.063Z,98232.13
2023-03-08T19:58:25.599Z,98236.83
2023-03-08T20:00:38.191Z,98235.48
2023-03-08T20:02:50.765Z,98233.77
2023-03-08T20:05:03.512Z,98238.58
2023-03-08T20:07:16.177Z,98230.30
2023-03-08T20:09:29.088Z,98222.69
2023-03-08T20:11:41.778Z,98221.05
2023-03-08T20:13:54.710Z,98220.66
2023-03-08T20:16:07.863Z,98217.52
2023-03-08T20:18:20.560Z,98217.45
2023-03-08T20:20:33.296Z,98218.23
2023-03-08T20:22:46.392Z,98214.91
2023-03-08T20:24:58.944Z,98220.70
2023-03-08T20:27:11.460Z,98221.35
2023-03-08T20:29:24.066Z,98222.35
2023-03-08T20:31:36.671Z,98222.67
2023-03-08T20:33:49.315Z,98224.05
2023-03-08T20:36:02.085Z,98216.15
2023-03-08T20:38:14.794Z,98213.59
2023-03-08T20:40:27.586Z,98216.98
2023-03-08T20:42:40.163Z,98216.09
2023-03-08T20:44:52.845Z,98214.13
2023-03-08T20:47:05.626Z,98215.49
2023-03-08T20:49:18.365Z,98213.58
2023-03-08T20:51:31.033Z,98210.69
2023-03-08T20:53:44.182Z,98206.98
2023-03-08T20:55:56.954Z,98205.02
2023-03-08T20:58:09.541Z,98201.19
2023-03-08T21:00:25.251Z,98204.36
2023-03-08T21:02:38.559Z,98211.83
2023-03-08T21:04:51.222Z,98208.24
2023-03-08T21:07:06.056Z,98202.61
2023-03-08T21:09:19.199Z,98201.70
2023-03-08T21:11:32.480Z,98202.98
2023-03-08T21:13:47.509Z,98195.50
2023-03-08T21:16:02.486Z,98198.86
2023-03-08T21:18:15.222Z,98200.23
2023-03-08T21:20:27.827Z,98199.86
2023-03-08T21:22:40.389Z,98203.55
2023-03-08T21:24:53.039Z,98196.20
2023-03-08T21:27:05.675Z,98193.46
2023-03-08T21:29:20.501Z,98193.33
2023-03-08T21:31:35.517Z,98193.81
2023-03-08T21:33:48.352Z,98188.60
2023-03-08T21:36:01.510Z,98188.15
2023-03-08T21:38:14.151Z,98187.14
2023-03-08T21:40:26.744Z,98190.17
2023-03-08T21:42:39.426Z,98193.92
2023-03-08T21:44:52.098Z,98191.63
2023-03-08T21:47:04.869Z,98191.46
2023-03-08T21:49:23.828Z,98192.91
2023-03-08T21:51:36.964Z,98196.72
2023-03-08T21:53:49.819Z,98194.66
2023-03-08T21:56:02.536Z,98193.73
2023-03-08T21:58:15.172Z,98194.34
2023-03-08T22:00:27.899Z,98196.79
2023-03-08T22:02:44.852Z,98198.18
2023-03-08T22:04:57.643Z,98198.81
2023-03-08T22:07:10.388Z,98193.31
2023-03-08T22:09:26.510Z,98188.45
2023-03-08T22:11:39.273Z,98188.14
2023-03-08T22:13:54.276Z,98190.38
2023-03-08T22:16:07.277Z,98189.42
2023-03-08T22:18:19.872Z,98190.77
2023-03-08T22:20:32.448Z,98188.98
2023-03-08T22:22:45.626Z,98185.92
2023-03-08T22:24:58.196Z,98187.97
2023-03-08T22:27:13.061Z,98190.23
2023-03-08T22:29:25.633Z,98185.60
2023-03-08T22:31:38.229Z,98185.73
2023-03-08T22:33:51.174Z,98184.55
2023-03-08T22:36:06.277Z,98185.39
2023-03-08T22:38:21.040Z,98185.20
2023-03-08T22:40:38.235Z,98185.74
2023-03-08T22:42:50.976Z,98183.49
2023-03-08T22:45:04.259Z,98183.65
2023-03-08T22:47:17.751Z,98182.02
2023-03-08T22:49:30.437Z,98188.04
2023-03-08T22:51:43.231Z,98187.27
2023-03-08T22:53:56.564Z,98189.47
2023-03-08T22:56:21.434Z,98192.83
2023-03-08T22:58:34.136Z,98191.10
2023-03-08T23:00:47.406Z,98190.38
2023-03-08T23:03:00.017Z,98190.27
2023-03-08T23:05:18.559Z,98191.08
2023-03-08T23:07:31.202Z,98187.46
2023-03-08T23:09:43.865Z,98186.23
2023-03-08T23:11:58.244Z,98184.90
2023-03-08T23:14:12.124Z,98182.91
2023-03-08T23:16:25.553Z,98179.45
2023-03-08T23:18:38.441Z,98179.55
2023-03-08T23:20:51.094Z,98180.47
2023-03-08T23:23:03.776Z,98179.15
2023-03-08T23:25:17.897Z,98178.88
2023-03-08T23:27:30.965Z,98179.95
2023-03-08T23:29:43.584Z,98177.26
2023-03-08T23:31:56.205Z,98177.70
2023-03-08T23:34:08.852Z,98172.35
2023-03-08T23:36:23.544Z,98174.46
2023-03-08T23:38:36.249Z,98176.83
2023-03-08T23:40:48.750Z,98176.70
2023-03-08T23:43:01.262Z,98173.38
2023-03-08T23:45:13.869Z,98176.07
2023-03-08T23:47:26.406Z,98180.38
2023-03-08T23:49:38.932Z,98175.48
2023-03-08T23:51:51.482Z,98174.72
2023-03-08T23:54:04.017Z,98173.52
2023-03-08T23:56:30.040Z,98172.75
2023-03-08T23:58:42.642Z,98175.88
